createdAt,value
2022-09-01T00:05:36.135Z,14.27
2022-09-01T00:10:38.119Z,14.25
2022-09-01T00:15:40.226Z,14.24
2022-09-01T00:20:41.673Z,14.23
2022-09-01T00:25:43.301Z,14.21
2022-09-01T00:30:45.232Z,14.2
2022-09-01T00:35:46.693Z,14.18
2022-09-01T00:40:48.594Z,14.17
2022-09-01T00:45:50.705Z,14.15
2022-09-01T00:50:52.805Z,14.15
2022-09-01T00:55:54.227Z,14.16
2022-09-01T01:00:55.550Z,14.16
2022-09-01T01:05:57.573Z,14.17
2022-09-01T01:10:58.888Z,14.17
2022-09-01T01:16:00.741Z,14.16
2022-09-01T01:21:02.621Z,14.15
2022-09-01T01:26:03.947Z,14.15
2022-09-01T01:31:05.531Z,14.1
2022-09-01T01:36:07.318Z,14.09
2022-09-01T01:41:08.564Z,14.06
2022-09-01T01:46:10.488Z,14.02
2022-09-01T01:51:12.515Z,14.01
2022-09-01T01:56:13.707Z,13.98
2022-09-01T02:01:15.685Z,13.98
2022-09-01T02:06:17.264Z,13.93
2022-09-01T02:11:19.167Z,13.92
2022-09-01T02:16:21.198Z,13.91
2022-09-01T02:21:23.328Z,13.9
2022-09-01T02:26:24.525Z,13.87
2022-09-01T02:31:25.741Z,13.85
2022-09-01T02:36:27.289Z,13.84
2022-09-01T02:41:29.428Z,13.82
2022-09-01T02:46:30.629Z,13.82
2022-09-01T02:51:32.776Z,13.82
2022-09-01T02:56:34.461Z,13.82
2022-09-01T03:01:36.020Z,13.83
2022-09-01T03:06:37.688Z,13.82
2022-09-01T03:11:39.603Z,13.8
2022-09-01T03:16:41.028Z,13.78
2022-09-01T03:21:42.295Z,13.77
2022-09-01T03:26:43.711Z,13.75
2022-09-01T03:31:45.508Z,13.74
2022-09-01T03:36:47.440Z,13.73
2022-09-01T03:41:49.182Z,13.71
2022-09-01T03:46:50.601Z,13.68
2022-09-01T03:51:52.628Z,13.66
2022-09-01T03:56:54.676Z,13.65
2022-09-01T04:01:56.108Z,13.6
2022-09-01T04:06:58.253Z,13.58
2022-09-01T04:12:00.256Z,13.56
2022-09-01T04:17:01.818Z,13.53
2022-09-01T04:22:03.960Z,13.48
2022-09-01T04:27:05.941Z,13.42
2022-09-01T04:32:07.447Z,13.38
2022-09-01T04:37:08.566Z,13.36
2022-09-01T04:42:10.493Z,13.34
2022-09-01T04:47:12.348Z,13.33
2022-09-01T04:52:13.991Z,13.31
2022-09-01T04:57:15.758Z,13.29
2022-09-01T05:02:17.009Z,13.28
2022-09-01T05:07:18.197Z,13.27
2022-09-01T05:12:19.955Z,13.28
2022-09-01T05:17:21.285Z,13.29
2022-09-01T05:22:22.892Z,13.31
2022-09-01T05:27:24.645Z,13.33
2022-09-01T05:32:25.993Z,13.35
2022-09-01T05:37:27.926Z,13.4
2022-09-01T05:42:30.088Z,13.44
2022-09-01T05:47:31.496Z,13.48
2022-09-01T05:52:33.207Z,13.53
2022-09-01T05:57:35.178Z,13.59
2022-09-01T06:02:36.368Z,13.65
2022-09-01T06:07:39.646Z,13.73
2022-09-01T06:12:40.763Z,13.82
2022-09-01T06:17:42.316Z,13.86
2022-09-01T06:22:43.669Z,13.93
2022-09-01T06:27:45.569Z,13.97
2022-09-01T06:32:47.617Z,14.04
2022-09-01T06:37:49.566Z,14.07
2022-09-01T06:42:51.423Z,14.14
2022-09-01T06:47:59.406Z,14.23
2022-09-01T08:03:18.766Z,15.33
2022-09-01T08:08:21.790Z,15.54
2022-09-01T08:13:22.291Z,15.84
2022-09-01T08:18:23.724Z,16.01
2022-09-01T08:23:25.466Z,16.25
2022-09-01T08:28:27.334Z,16.31
2022-09-01T08:33:28.295Z,16.43
2022-09-01T08:43:31.892Z,16.54
2022-09-01T08:49:16.352Z,16.58
2022-09-01T08:53:35.468Z,16.6
2022-09-01T08:58:37.450Z,16.79
2022-09-01T09:03:40.899Z,16.7
2022-09-01T09:08:40.957Z,16.91
2022-09-01T09:13:42.522Z,17.11
2022-09-01T09:19:00.046Z,17.19
2022-09-01T09:23:46.043Z,17.5
2022-09-01T09:28:47.658Z,17.7
2022-09-01T09:33:52.540Z,17.94
2022-09-01T09:43:53.246Z,18.66
2022-09-01T09:53:56.360Z,18.61
2022-09-01T09:58:57.619Z,18.45
2022-09-01T10:03:59.710Z,18.39
2022-09-01T10:09:01.551Z,18.19
2022-09-01T10:14:03.489Z,18
2022-09-01T10:19:07.106Z,18.53
2022-09-01T10:24:25.806Z,18.87
2022-09-01T10:29:08.655Z,19.11
2022-09-01T10:34:09.887Z,19.33
2022-09-01T10:39:11.701Z,19.79
2022-09-01T10:44:13.051Z,19.58
2022-09-01T10:49:15.956Z,19.08
2022-09-01T10:54:15.606Z,18.73
2022-09-01T10:59:37.597Z,18.78
2022-09-01T11:04:19.501Z,18.95
2022-09-01T11:09:21.245Z,19.07
2022-09-01T11:14:22.746Z,19.23
2022-09-01T11:19:24.215Z,19.7
2022-09-01T11:24:27.329Z,19.86
2022-09-01T11:29:27.402Z,20.12
2022-09-01T11:34:29.021Z,19.98
2022-09-01T11:39:30.250Z,20.07
2022-09-01T11:44:31.731Z,20.21
2022-09-01T11:49:40.135Z,19.86
2022-09-01T11:54:42.064Z,19.58
2022-09-01T11:59:43.311Z,19.32
2022-09-01T12:04:44.591Z,19.25
2022-09-01T12:09:46.758Z,19.19
2022-09-01T12:15:04.678Z,19.26
2022-09-01T12:19:50.587Z,19.29
2022-09-01T12:24:52.255Z,19.41
2022-09-01T12:29:53.967Z,19.56
2022-09-01T12:34:55.739Z,19.69
2022-09-01T12:39:57.312Z,19.86
2022-09-01T12:44:59.010Z,19.79
2022-09-01T12:50:03.133Z,19.99
2022-09-01T12:55:02.554Z,20.02
2022-09-01T13:00:04.268Z,19.95
2022-09-01T13:05:06.013Z,19.9
2022-09-01T13:10:07.997Z,19.79
2022-09-01T13:15:09.909Z,19.68
2022-09-01T13:20:11.549Z,19.7
2022-09-01T13:25:13.610Z,20.01
2022-09-01T13:30:14.950Z,19.89
2022-09-01T13:35:16.188Z,19.79
2022-09-01T13:40:18.237Z,19.67
2022-09-01T13:45:20.191Z,19.7
2022-09-01T13:50:23.970Z,19.65
2022-09-01T13:55:23.190Z,19.75
2022-09-01T14:00:24.406Z,20.02
2022-09-01T14:05:25.867Z,19.99
2022-09-01T14:10:27.650Z,20.17
2022-09-01T14:15:29.671Z,20.24
2022-09-01T14:20:33.341Z,20.17
2022-09-01T14:25:33.707Z,20.02
2022-09-01T14:30:35.303Z,20.01
2022-09-01T14:35:37.306Z,20.04
2022-09-01T14:40:39.315Z,20.01
2022-09-01T14:45:41.034Z,20.06
2022-09-01T14:50:42.907Z,20.04
2022-09-01T14:55:44.313Z,20
2022-09-01T15:00:45.994Z,20.07
2022-09-01T15:05:47.934Z,20.08
2022-09-01T15:10:49.853Z,20.08
2022-09-01T15:15:51.825Z,20.29
2022-09-01T15:20:53.058Z,20.39
2022-09-01T15:25:55.098Z,20.33
2022-09-01T15:30:57.251Z,20.17
2022-09-01T15:35:59.173Z,19.96
2022-09-01T15:41:01.014Z,19.79
2022-09-01T15:46:02.219Z,19.56
2022-09-01T15:51:04.393Z,19.62
2022-09-01T15:56:05.614Z,19.57
2022-09-01T16:01:07.272Z,19.54
2022-09-01T16:06:09.114Z,19.51
2022-09-01T16:11:10.339Z,19.46
2022-09-01T16:16:12.562Z,19.36
2022-09-01T16:21:14.114Z,19.28
2022-09-01T16:26:16.081Z,19.15
2022-09-01T16:31:17.414Z,19.07
2022-09-01T16:36:18.632Z,18.99
2022-09-01T16:41:19.887Z,18.85
2022-09-01T16:46:21.806Z,18.76
2022-09-01T16:51:23.042Z,18.6
2022-09-01T16:56:24.330Z,18.46
2022-09-01T17:01:26.596Z,18.27
2022-09-01T17:06:38.306Z,18.17
2022-09-01T17:11:30.269Z,18.11
2022-09-01T17:16:32.395Z,18.01
2022-09-01T17:21:34.288Z,17.92
2022-09-01T17:26:35.598Z,17.79
2022-09-01T17:31:36.980Z,17.7
2022-09-01T17:36:39.285Z,17.6
2022-09-01T17:41:39.763Z,17.49
2022-09-01T17:46:41.994Z,17.37
2022-09-01T17:51:43.144Z,17.25
2022-09-01T17:56:44.910Z,17.07
2022-09-01T18:01:47.091Z,16.9
2022-09-01T18:06:48.606Z,16.76
2022-09-01T18:11:50.089Z,16.66
2022-09-01T18:16:52.239Z,16.5
2022-09-01T18:21:54.142Z,16.36
2022-09-01T18:26:56.336Z,16.21
2022-09-01T18:31:57.907Z,16.08
2022-09-01T18:36:59.698Z,15.95
2022-09-01T18:42:00.919Z,15.79
2022-09-01T18:47:02.154Z,15.68
2022-09-01T18:52:03.613Z,15.56
2022-09-01T18:57:05.394Z,15.41
2022-09-01T19:02:07.668Z,15.25
2022-09-01T19:07:08.793Z,15.14
2022-09-01T19:12:10.141Z,15.06
2022-09-01T19:17:11.591Z,14.97
2022-09-01T19:22:13.322Z,14.88
2022-09-01T19:27:15.439Z,14.76
2022-09-01T19:32:17.577Z,14.69
2022-09-01T19:37:18.809Z,14.63
2022-09-01T19:42:20.899Z,14.53
2022-09-01T19:47:22.899Z,14.41
2022-09-01T19:52:24.817Z,14.32
2022-09-01T19:57:26.986Z,14.23
2022-09-01T20:02:28.716Z,14.14
2022-09-01T20:07:30.538Z,14.04
2022-09-01T20:12:31.106Z,13.99
2022-09-01T20:17:32.614Z,13.9
2022-09-01T20:22:33.943Z,13.82
2022-09-01T20:27:35.826Z,13.76
2022-09-01T20:32:37.223Z,13.68
2022-09-01T20:37:39.334Z,13.62
2022-09-01T20:42:41.295Z,13.52
2022-09-01T20:47:42.584Z,13.42
2022-09-01T20:52:44.334Z,13.36
2022-09-01T20:57:46.376Z,13.29
2022-09-01T21:02:48.110Z,13.21
2022-09-01T21:07:49.312Z,13.14
2022-09-01T21:12:50.962Z,13.07
2022-09-01T21:17:52.864Z,13
2022-09-01T21:22:54.411Z,12.92
2022-09-01T22:13:09.192Z,12.29
2022-09-01T22:33:15.539Z,12.04
2022-09-01T22:38:17.028Z,11.96
2022-09-01T22:43:18.575Z,11.87
2022-09-01T23:03:24.972Z,11.53
2022-09-01T23:18:29.853Z,11.33
2022-09-01T23:23:31.759Z,11.25
2022-09-01T23:33:35.172Z,11.14
2022-09-01T23:38:37.072Z,11.08
2022-09-01T23:43:38.339Z,11.01
2022-09-01T23:48:39.631Z,10.98
2022-09-01T23:53:40.912Z,10.93
2022-09-01T23:58:42.493Z,10.88
